Flight Track Log - Related Links

Times and Time Zones

All times are in EDT time to prevent confusion due to time zone crossing. See the USC105 flight status page for this flight to view local times or setup timezone preferences in your user account.

Time Position Orientation Groundspeed Altitude Reporting Facility
EDT Latitude Longitude Course Direction KTS MPH feet Rate Location/Type
Fri 00:13:31 42.2594 -83.5458 310° West 149 171 1,800  Level Cleveland Center
Fri 00:14:32 42.2578 -83.6047 268° West 165 190 2,500 621 Climbing Cleveland Center
Fri 00:15:27 42.2583 -83.6636 271° West 178 205 3,000 730 Climbing Cleveland Center
Fri 00:16:27 42.2567 -83.7253 268° West 158 182 3,900 694 Climbing Cleveland Center
Fri 00:17:28 42.2531 -83.7842 265° West 161 185 4,400 500 Climbing Cleveland Center
Fri 00:19:03 42.2511 -83.8742 268° West 156 180 5,200 462 Climbing Chicago Center
Fri 00:20:04 42.2506 -83.9342 269° West 158 182 5,600 344 Climbing Chicago Center
Fri 00:21:05 42.2456 -83.9894 263° West 155 178 5,900 148 Climbing Chicago Center
Fri 00:22:06 42.2431 -84.0519 267° West 159 183 5,900  Level Chicago Center
Fri 00:23:07 42.2383 -84.1183 265° West 169 194 5,900  Level Chicago Center
Fri 00:24:07 42.2350 -84.1836 266° West 173 199 5,900  Level Chicago Center
Fri 00:25:08 42.2300 -84.2481 264° West 171 197 5,900  Level Chicago Center
Fri 00:26:09 42.2258 -84.3128 265° West 173 199 5,900  Level Chicago Center
Fri 00:27:10 42.2222 -84.3786 266° West 176 203 5,900  Level Chicago Center
Fri 00:28:11 42.2217 -84.4453 269° West 178 205 5,900  Level Chicago Center
Fri 00:29:11 42.2153 -84.5094 262° West 175 201 5,900  Level Chicago Center
Fri 00:30:12 42.2111 -84.5711 265° West 173 199 5,900  Level Chicago Center
Fri 00:31:13 42.2067 -84.6344 265° West 172 198 5,900  Level Chicago Center
Fri 00:32:13 42.2022 -84.6981 265° West 172 198 5,900  Level Chicago Center
Fri 00:33:14 42.1961 -84.7744 264° West 171 197 5,900  Level Chicago Center
Fri 00:34:15 42.1928 -84.8417 266° West 178 205 5,900  Level Chicago Center
Fri 00:35:16 42.1878 -84.9083 264° West 179 206 5,900  Level Chicago Center
Fri 00:36:16 42.1833 -84.9742 265° West 179 206 5,900  Level Chicago Center
Fri 00:37:17 42.1783 -85.0397 264° West 178 205 5,900  Level Chicago Center
Fri 00:38:18 42.1739 -85.1050 265° West 176 203 5,900  Level Chicago Center
Fri 00:39:18 42.1689 -85.1681 264° West 173 199 5,900  Level Chicago Center
Fri 00:40:19 42.1650 -85.2311 265° West 171 197 5,900  Level Chicago Center
Fri 00:41:19 42.1603 -85.2939 264° West 170 196 5,900  Level Chicago Center
Fri 00:42:20 42.1561 -85.3569 265° West 170 196 5,900  Level Chicago Center
Fri 00:43:21 42.1511 -85.4206 264° West 171 197 5,900  Level Chicago Center
Fri 00:44:21 42.1469 -85.4833 265° West 171 197 5,900  Level Chicago Center
Fri 00:45:22 42.1417 -85.5469 264° West 171 197 5,900  Level Chicago Center
Fri 00:46:23 42.1369 -85.6106 264° West 172 198 5,900  Level Chicago Center
Fri 00:47:23 42.1322 -85.6733 264° West 170 196 5,900  Level Chicago Center
Fri 00:48:24 42.1261 -85.7519 264° West 175 201 5,900  Level Chicago Center
Fri 00:49:24 42.1211 -85.8175 264° West 177 204 5,900  Level Chicago Center
Fri 00:50:25 42.1158 -85.8828 264° West 176 203 5,900  Level Chicago Center
Fri 00:51:26 42.1111 -85.9467 264° West 175 201 5,900  Level Chicago Center
Fri 00:52:26 42.1058 -86.0086 263° West 170 196 5,900  Level Chicago Center
Fri 00:53:27 42.1011 -86.0708 264° West 167 192 5,900  Level Chicago Center
Fri 00:54:27 42.0964 -86.1372 265° West 175 201 5,900  Level Chicago Center
Fri 00:55:28 42.0900 -86.2011 262° West 174 200 5,900  Level Chicago Center
Fri 00:56:29 42.0858 -86.2642 265° West 171 197 5,900  Level Chicago Center
Fri 00:57:29 42.0803 -86.3278 263° West 171 197 5,900  Level Chicago Center
Fri 00:58:30 42.0750 -86.3886 263° West 167 192 5,900  Level Chicago Center
Fri 00:59:30 42.0689 -86.4531 263° West 171 197 5,900  Level Chicago Center
Fri 01:00:31 42.0642 -86.5178 264° West 174 200 5,900  Level Chicago Center
Fri 01:01:32 42.0583 -86.5842 263° West 177 204 5,900  Level Chicago Center
Fri 01:02:32 42.0539 -86.6511 265° West 180 207 5,900  Level Chicago Center
Fri 01:03:33 42.0481 -86.7161 263° West 177 204 5,900  Level Chicago Center
Fri 01:04:33 42.0422 -86.7828 263° West 180 207 5,900  Level Chicago Center
Fri 01:05:34 42.0361 -86.8528 263° West 182 209 5,900  Level Chicago Center
Fri 01:06:34 42.0306 -86.9189 264° West 181 208 5,900  Level Chicago Center
Fri 01:07:35 42.0319 -86.9997 271° West 182 209 5,900  Level Chicago Center
Fri 01:08:35 42.0453 -87.0675 285° West 188 216 5,900  Level Chicago Center
Fri 01:09:36 42.0544 -87.1328 281° West 181 208 5,900  Level Chicago Center
Fri 01:10:36 42.0644 -87.2008 281° West 185 213 5,900  Level Chicago Center
Fri 01:11:37 42.0744 -87.2697 281° West 188 216 5,900  Level Chicago Center
Fri 01:12:37 42.0844 -87.3369 281° West 187 215 5,900  Level Chicago Center
Fri 01:13:38 42.0950 -87.4047 282° West 187 215 5,900  Level Chicago Center
Fri 01:14:38 42.1067 -87.4728 283° West 188 216 5,900  Level Chicago Center
Fri 01:14:58 42.1167 -87.5000 296° West 190 219 5,900  Level Chicago TRACON
Fri 01:15:58 42.1167 -87.5667 270° West 189 217 5,900 -238 Level Chicago TRACON
Fri 01:16:39 42.1300 -87.6108 292° West 191 220 5,500 -416 Descending Chicago Center
Fri 01:17:39 42.1394 -87.6856 280° West 200 230 5,200 -298 Descending Chicago Center
Fri 01:18:40 42.1514 -87.7569 283° West 199 229 4,900 -347 Descending Chicago Center
Fri 01:19:40 42.1625 -87.8308 281° West 201 231 4,500 -397 Descending Chicago Center
Fri 01:20:41 42.1722 -87.9008 281° West 196 226 4,100 -347 Descending Chicago Center
Fri 01:21:41 42.1794 -87.9678 278° West 189 217 3,800 -446 Descending Chicago Center
Fri 01:22:42 42.1578 -88.0275 244° Southwest 180 207 3,200 -446 Descending Chicago Center
Fri 01:23:42 42.1358 -88.0822 242° Southwest 176 203 2,900 -100 Descending Chicago Center
Fri 01:24:42 42.1150 -88.1417 245° Southwest 162 186 3,000 50 Climbing Chicago Center
Fri 01:25:43 42.0942 -88.1839 236° Southwest 152 175 3,000 -198 Level Chicago Center
Fri 01:26:43 42.0542 -88.1992 196° South 150 173 2,600 -300 Descending Chicago Center
Fri 01:27:43 42.0131 -88.2136 195° South 153 176 2,400 -198 Descending Chicago Center
Fri 01:28:44 41.9789 -88.2261 195° South 141 162 2,200 -397 Descending Chicago Center
Fri 01:29:44 41.9481 -88.2358 193° South 124 143 1,600 -496 Descending Chicago Center
Fri 01:30:45 41.9211 -88.2456 195° South 120 138 1,200 -393 Descending Chicago Center

Login

Don't have an account? Register now (free) for customized features, flight alerts, and more!